Inadale, Texas
Current Conditions -  °F | °C
As of 4:15 AM on Thursday 23 Oct 2014 (Local Time) from KSWW Reporting Station
Overcast Overcast  
Wind Chill: 62°   Ceiling: 4200
Heat Index: 62°   Visibility: 10mi
Dew Point: 56°   Wind: 5mph
Humidity: 81%   Direction: 200°SSW
Pressure: 30.16"   Gusts: NA
Location:  32.3875°N, 100.536°W
Report Text: KSWW 230915Z AUTO 20004KT 10SM SCT031 OVC042 17/13 A3016 RMK AO2 T01650133
Loading
Personal Weather Stations






























Interactive Weather Map
Tropical Storm Tracking
New forecast layout! Learn more

10-Day Weather Forecast

Advertisements
Track Severe Weather on mobile